Terminal Aerodrome Forecast
Issued by NWS Buffalo, NY

Home | Current Version | Previous Version | Text Only | Print | Product List | Glossary On
Versions: 1 2 3 4 5 6 7 8 9 10 11 12 13 14 15 16 17 18 19 20 21 22 23 24 25 26 27
000
FTUS41 KBUF 222300
TAFROC
TAF
KROC 222336Z 2300/2324 27007KT P6SM SCT040
     FM230100 27007KT P6SM FEW040
     FM230800 23007KT P6SM SKC
     FM231700 27009KT P6SM SKC
     FM232200 28005KT P6SM SKC=

USA.gov is the U.S. government's official web portal to all federal, state and local government web resources and services.